Jakarta/Soekarno-Hatta, Indonesia
Current Conditions -  °F | °C
As of 3:00 AM on Wednesday 28 Jan 2015 (Local Time) from WIII Reporting Station
Haze Haze  
Wind Chill: 75°   Ceiling: 2000
Heat Index: 75°   Visibility: 0.93mi
Dew Point: 73°   Wind: 2mph
Humidity: 94%   Direction: 280°W
Pressure: 29.83"   Gusts: NA
Location:  6.13°S, 106.66°E
Report Text: WIII 272000Z 28002KT 1500 BR FEW020CB BKN020 24/23 Q1010 NOSIG RMK CB TO E
Loading
Personal Weather Stations






























Interactive Weather Map New forecast layout! Learn more

10-Day Weather Forecast

Advertisements
Track Severe Weather on mobile